This is the latest recevied weather packets stored in our database for station/object AA7VG. If no packets are shown the sender has not sent any weather packets the latest 1 day(s).
| Time | Temp. | Humidity | Pressure | Rain* | Wind** | Luminosity | Snow |
|---|---|---|---|---|---|---|---|
| 1778003085 | 10° C | 35% | 1015.5 hPa | 0 mm | 2.24 m/s, 341° | - | - |
| 1778002781 | 9.44° C | 36% | 1015.8 hPa | 0 mm | 0.45 m/s, 82° | - | - |
| 1778002478 | 8.89° C | 38% | 1015.4 hPa | 0 mm | 0.89 m/s, 79° | - | - |
| 1778002175 | 10° C | 36% | 1015.5 hPa | 0 mm | 0.45 m/s, 95° | - | - |
| 1778001873 | 10.56° C | 33% | 1015.3 hPa | 0 mm | 0.89 m/s, 337° | - | - |
| 1778001572 | 10.56° C | 33% | 1015.3 hPa | 0 mm | 1.79 m/s, 330° | - | - |
| 1778001270 | 9.44° C | 35% | 1015.4 hPa | 0 mm | 0.89 m/s, 304° | - | - |
| 1778000966 | 9.44° C | 36% | 1015.4 hPa | 0 mm | 0.45 m/s, 234° | - | - |
| 1778000663 | 9.44° C | 35% | 1015.5 hPa | 0 mm | 0.89 m/s, 317° | - | - |
| 1778000358 | 8.89° C | 36% | 1015.4 hPa | 0 mm | 0.45 m/s, 314° | - | - |
| 1778000055 | 8.33° C | 36% | 1015.4 hPa | 0 mm | 1.34 m/s, 347° | - | - |
| 1777999749 | 8.33° C | 37% | 1015.5 hPa | 0 mm | 0.89 m/s, 94° | - | - |
| 1777999447 | 8.89° C | 35% | 1015.6 hPa | 0 mm | 0.45 m/s, 146° | - | - |
| 1777999145 | 9.44° C | 36% | 1015.8 hPa | 0 mm | 0.89 m/s, 131° | - | - |
| 1777998844 | 9.44° C | 34% | 1015.4 hPa | 0 mm | 0 m/s | - | - |
| 1777998542 | 8.89° C | 36% | 1015.4 hPa | 0 mm | 0.45 m/s, 2° | - | - |
| 1777998237 | 9.44° C | 35% | 1015.5 hPa | 0 mm | 1.34 m/s, 347° | - | - |
| 1777997935 | 10° C | 35% | 1015.3 hPa | 0 mm | 0.89 m/s, 329° | - | - |
| 1777997631 | 8.89° C | 36% | 1015.3 hPa | 0 mm | 0 m/s | - | - |
| 1777997329 | 8.33° C | 38% | 1015.6 hPa | 0 mm | 0.45 m/s, 286° | - | - |
| 1777997027 | 8.33° C | 39% | 1015.6 hPa | 0 mm | 0.89 m/s, 325° | - | - |
| 1777996723 | 8.33° C | 38% | 1015.6 hPa | 0 mm | 0.45 m/s, 269° | - | - |
| 1777996419 | 7.78° C | 39% | 1015.5 hPa | 0 mm | 2.24 m/s, 324° | - | - |
| 1777996116 | 7.78° C | 40% | 1015.6 hPa | 0 mm | 1.34 m/s, 276° | - | - |
| 1777995812 | 7.78° C | 40% | 1015.8 hPa | 0 mm | 0.89 m/s, 301° | - | - |
* Rain latest hour (hover to see other rain measurements)
** Current wind speed in m/s (hover to see current wind gust speed)